X  Cerrar Datos meteorológicos de aviación METAR     KBNA Nashville International Airport
Temperatura
93°F Temperatura
63°F Punto de rocío
36% Humedad



Viento
0 MPH
0 KM/H
0 M/S
0 NUDO



Calma
Norte
Condiciones actuales

Nubes mayormente dispersas Nubes mayormente dispersas
Presión 1014.92 (hPa) - 29.97 (inHg)
Visibilidad 10 (milla) - 16.1 (km)
Aeropuerto
Código de aeropuerto KBNA

localidad: Nashville International Airport
Distancia: 28 (mi)

Metar:
KBNA 012253Z 00000KT 10SM SCT065 SCT100 34/17 A2997 RMK AO2 SLP140 TCU DSNT W T03440167

Hora: 07-01-2022 5:53 pm CDT